Time;durP1;ratioP1;P1;durP2;ratioP2;P2;SDS_P1;SDS_P2;PMS_P1;PMS_P2;Temp;Humidity;BMP_temperature;BMP_pressure;BME280_temperature;BME280_humidity;BME280_pressure;Samples;Min_cycle;Max_cycle;Signal;HPM_P1;HPM_P2
2023/09/15 00:00:00;;;;;;;14.88;11.45;;;21.50;99.90;;;;;;4944031;29;20188;-82
2023/09/15 00:02:31;;;;;;;14.32;10.95;;;21.70;99.90;;;;;;4936648;29;20216;-82
2023/09/15 00:05:02;;;;;;;15.05;10.63;;;21.80;99.90;;;;;;4936447;29;20568;-82
2023/09/15 00:07:33;;;;;;;15.75;11.77;;;21.90;99.90;;;;;;4936383;29;20228;-81
2023/09/15 00:10:06;;;;;;;15.98;12.63;;;22.10;99.90;;;;;;4938054;29;20241;-82
2023/09/15 00:12:37;;;;;;;16.73;12.32;;;22.30;99.90;;;;;;4942517;29;20291;-82
2023/09/15 00:15:11;;;;;;;18.50;12.60;;;22.50;99.90;;;;;;4954236;29;20259;-82
2023/09/15 00:17:44;;;;;;;19.30;12.40;;;22.60;99.90;;;;;;4956242;28;20278;-82
2023/09/15 00:20:15;;;;;;;13.52;12.13;;;22.60;99.90;;;;;;4956096;29;20287;-82
2023/09/15 00:22:48;;;;;;;17.98;12.57;;;22.70;99.90;;;;;;4954627;29;20211;-82
2023/09/15 00:25:20;;;;;;;17.63;12.45;;;22.90;99.90;;;;;;4944080;29;20283;-82
2023/09/15 00:27:51;;;;;;;16.02;11.93;;;23.00;99.90;;;;;;4956008;29;20236;-82
2023/09/15 00:30:24;;;;;;;17.80;12.18;;;23.00;99.90;;;;;;4955314;29;20282;-82
2023/09/15 00:32:56;;;;;;;17.67;11.70;;;23.10;99.90;;;;;;4939972;29;20209;-81
2023/09/15 00:35:28;;;;;;;14.68;10.68;;;23.10;99.90;;;;;;4936330;29;20244;-82
2023/09/15 00:37:58;;;;;;;11.15;9.60;;;23.20;99.90;;;;;;4935874;29;20215;-82
2023/09/15 00:40:30;;;;;;;16.98;9.95;;;23.00;99.90;;;;;;4937378;29;20204;-82
2023/09/15 00:43:01;;;;;;;11.48;7.65;;;23.00;99.90;;;;;;4954997;29;20230;-82
2023/09/15 00:45:34;;;;;;;13.85;7.65;;;23.20;99.90;;;;;;4954907;29;20200;-82
2023/09/15 00:48:05;;;;;;;9.27;6.20;;;23.20;99.90;;;;;;4953118;29;20220;-82
2023/09/15 00:50:37;;;;;;;10.70;6.00;;;23.30;99.90;;;;;;4935859;29;20197;-82
2023/09/15 00:53:10;;;;;;;11.57;6.28;;;23.30;99.90;;;;;;4935615;29;20205;-83
2023/09/15 00:55:42;;;;;;;11.82;6.38;;;23.30;99.90;;;;;;4936134;29;20205;-82
2023/09/15 00:58:13;;;;;;;10.95;6.47;;;23.50;99.90;;;;;;4944677;29;20210;-83
2023/09/15 01:00:47;;;;;;;11.43;6.70;;;23.50;99.90;;;;;;4955455;29;20208;-82
2023/09/15 01:03:21;;;;;;;13.13;6.70;;;23.60;99.90;;;;;;4965124;28;20264;-82
2023/09/15 01:05:52;;;;;;;12.25;6.22;;;23.70;99.90;;;;;;4951598;29;20563;-82
2023/09/15 01:08:23;;;;;;;9.15;6.40;;;23.50;99.40;;;;;;4935575;29;20220;-82
2023/09/15 01:10:54;;;;;;;12.63;5.97;;;23.60;99.90;;;;;;4935841;29;20208;-83
2023/09/15 01:13:25;;;;;;;9.50;5.97;;;23.70;99.90;;;;;;4935511;29;20201;-82
2023/09/15 01:16:04;;;;;;;8.73;6.20;;;23.80;99.90;;;;;;4935738;29;20207;-83
2023/09/15 01:18:42;;;;;;;11.10;6.05;;;23.90;99.90;;;;;;4948468;29;20540;-82
2023/09/15 01:21:39;;;;;;;9.30;5.70;;;24.10;99.90;;;;;;4954565;29;20203;-82
2023/09/15 01:24:53;;;;;;;5.93;4.95;;;24.20;99.90;;;;;;4953394;29;20208;-82
2023/09/15 01:27:51;;;;;;;7.90;4.72;;;24.50;99.50;;;;;;4913739;29;20216;-82
2023/09/15 01:30:27;;;;;;;10.10;5.80;;;24.60;98.50;;;;;;4948493;29;20283;-81
2023/09/15 01:33:00;;;;;;;10.02;4.95;;;24.90;99.40;;;;;;4953706;29;20207;-81
2023/09/15 01:35:32;;;;;;;9.50;4.78;;;25.00;97.80;;;;;;4953661;29;20231;-82
2023/09/15 01:38:02;;;;;;;8.98;4.85;;;25.10;98.50;;;;;;4953940;29;20291;-82
2023/09/15 01:40:33;;;;;;;9.10;4.40;;;25.10;99.60;;;;;;4941904;29;20216;-82
2023/09/15 01:43:04;;;;;;;8.98;4.43;;;25.20;98.10;;;;;;4953699;29;20563;-81
2023/09/15 01:45:36;;;;;;;10.73;4.68;;;25.20;96.90;;;;;;4954363;29;20196;-82
2023/09/15 01:48:09;;;;;;;7.05;4.80;;;25.20;95.30;;;;;;4952708;29;20228;-82
2023/09/15 01:50:41;;;;;;;9.57;4.68;;;25.20;95.40;;;;;;4954059;29;20200;-81
2023/09/15 01:53:13;;;;;;;9.35;4.90;;;25.30;95.60;;;;;;4954242;29;20200;-81
2023/09/15 01:55:45;;;;;;;8.50;4.70;;;25.50;95.50;;;;;;4953870;29;20705;-81
2023/09/15 01:58:18;;;;;;;10.02;4.68;;;25.60;95.60;;;;;;4935113;29;20212;-81
2023/09/15 02:00:50;;;;;;;7.18;4.50;;;25.80;94.90;;;;;;4934725;29;20205;-82
2023/09/15 02:03:21;;;;;;;7.85;4.40;;;25.90;94.70;;;;;;4934321;29;20204;-82
2023/09/15 02:05:52;;;;;;;9.07;4.70;;;26.00;94.00;;;;;;4950810;29;20208;-82
2023/09/15 02:08:22;;;;;;;7.65;4.15;;;26.10;93.50;;;;;;4960259;29;20238;-81
2023/09/15 02:10:53;;;;;;;6.35;3.80;;;26.00;93.60;;;;;;4975132;29;20208;-81
2023/09/15 02:13:24;;;;;;;7.80;4.50;;;25.90;93.80;;;;;;4949852;29;20216;-81
2023/09/15 02:15:58;;;;;;;6.55;3.90;;;26.00;93.80;;;;;;4936585;29;20193;-81
2023/09/15 02:18:28;;;;;;;5.25;3.83;;;26.00;93.70;;;;;;4953106;29;20636;-81
2023/09/15 02:21:00;;;;;;;7.13;3.90;;;26.00;93.50;;;;;;4952194;29;20197;-82
2023/09/15 02:23:31;;;;;;;5.18;3.70;;;26.00;92.90;;;;;;4953247;29;20203;-81
2023/09/15 02:26:05;;;;;;;5.25;3.70;;;26.00;93.20;;;;;;4953275;29;20208;-82
2023/09/15 02:28:36;;;;;;;7.45;3.63;;;26.10;92.80;;;;;;4954307;29;20254;-81
2023/09/15 02:31:09;;;;;;;8.10;4.15;;;26.20;92.90;;;;;;4944465;29;20215;-82
2023/09/15 02:33:40;;;;;;;6.90;4.50;;;26.20;92.90;;;;;;4933665;29;20204;-81
2023/09/15 02:36:10;;;;;;;6.57;4.07;;;26.10;93.30;;;;;;4934474;29;20641;-81
2023/09/15 02:38:41;;;;;;;8.43;4.35;;;26.30;93.60;;;;;;4948891;29;20595;-81
2023/09/15 02:41:12;;;;;;;8.45;4.50;;;26.40;93.30;;;;;;4953318;29;20660;-82
2023/09/15 02:43:48;;;;;;;6.57;4.13;;;26.50;92.80;;;;;;4953079;29;20556;-82
2023/09/15 02:46:20;;;;;;;7.55;4.00;;;26.40;91.70;;;;;;4952514;29;20204;-81
2023/09/15 02:48:51;;;;;;;7.80;4.25;;;26.40;91.90;;;;;;4937290;29;20243;-81
2023/09/15 02:51:22;;;;;;;4.63;4.10;;;26.60;91.20;;;;;;4945863;29;20675;-81
2023/09/15 02:53:52;;;;;;;5.70;4.65;;;26.70;90.50;;;;;;4952757;29;20200;-81
2023/09/15 02:56:24;;;;;;;7.80;4.38;;;26.90;90.50;;;;;;4952747;29;20207;-81
2023/09/15 02:58:55;;;;;;;6.65;3.97;;;27.10;89.40;;;;;;4952536;29;20572;-81
2023/09/15 03:01:27;;;;;;;7.25;4.30;;;27.20;88.60;;;;;;4952790;29;20196;-81
2023/09/15 03:03:58;;;;;;;9.43;4.57;;;27.10;86.90;;;;;;4952148;29;20200;-81
2023/09/15 03:06:29;;;;;;;10.63;4.55;;;27.10;86.90;;;;;;4933525;29;20777;-81
2023/09/15 03:09:00;;;;;;;6.65;4.32;;;27.00;87.00;;;;;;4942183;29;20223;-81
2023/09/15 03:11:31;;;;;;;9.55;4.80;;;27.00;88.20;;;;;;4952461;29;20207;-81
2023/09/15 03:14:01;;;;;;;6.80;4.70;;;27.00;88.10;;;;;;4952763;29;20207;-81
2023/09/15 03:16:34;;;;;;;6.57;4.45;;;27.10;88.00;;;;;;4969791;28;20230;-81
2023/09/15 03:19:05;;;;;;;10.48;4.95;;;27.10;88.30;;;;;;4955436;29;20706;-81
2023/09/15 03:21:36;;;;;;;5.95;4.60;;;27.00;88.70;;;;;;4952012;29;20336;-82
2023/09/15 03:24:07;;;;;;;8.75;5.10;;;27.00;88.90;;;;;;4952523;29;20215;-81
2023/09/15 03:26:39;;;;;;;7.65;4.60;;;26.90;89.40;;;;;;4951906;28;20211;-81
2023/09/15 03:29:10;;;;;;;5.43;4.45;;;26.90;89.70;;;;;;4956298;29;20589;-81
2023/09/15 03:31:43;;;;;;;10.07;4.60;;;27.00;89.30;;;;;;4956635;29;20200;-81
2023/09/15 03:34:13;;;;;;;7.90;3.80;;;27.00;87.70;;;;;;4956631;29;20238;-81
2023/09/15 03:36:44;;;;;;;8.70;3.78;;;27.00;86.60;;;;;;4956882;29;20200;-82
2023/09/15 03:39:15;;;;;;;8.50;4.00;;;27.10;85.70;;;;;;4951146;29;20255;-82
2023/09/15 03:41:46;;;;;;;5.88;4.18;;;27.10;83.70;;;;;;4956408;29;20714;-81
2023/09/15 03:44:16;;;;;;;7.50;3.85;;;26.90;83.50;;;;;;4956119;29;20214;-81
2023/09/15 03:46:49;;;;;;;5.50;3.88;;;26.90;82.70;;;;;;4955950;29;20200;-81
2023/09/15 03:49:20;;;;;;;8.10;4.00;;;26.80;83.90;;;;;;4956208;29;20601;-81
2023/09/15 03:51:50;;;;;;;5.03;4.00;;;26.80;84.80;;;;;;4955813;29;20200;-81
2023/09/15 03:54:21;;;;;;;5.97;3.75;;;26.70;85.40;;;;;;4955817;29;20214;-81
2023/09/15 03:56:52;;;;;;;7.40;3.90;;;26.70;86.30;;;;;;4940518;29;20216;-81
2023/09/15 03:59:23;;;;;;;11.25;3.97;;;26.50;86.00;;;;;;4936894;29;20290;-81
2023/09/15 04:01:55;;;;;;;6.70;3.85;;;26.50;86.30;;;;;;4949315;29;20200;-81
2023/09/15 04:04:26;;;;;;;10.73;4.53;;;26.50;87.60;;;;;;4954756;29;20195;-81
2023/09/15 04:06:57;;;;;;;6.70;4.05;;;26.50;87.90;;;;;;4955654;29;20547;-81
2023/09/15 04:09:28;;;;;;;6.60;3.65;;;26.20;88.50;;;;;;4955562;29;20227;-81
2023/09/15 04:12:00;;;;;;;6.95;3.75;;;26.20;89.70;;;;;;4954177;29;20656;-82
2023/09/15 04:14:34;;;;;;;6.55;3.65;;;26.30;89.90;;;;;;4949704;29;20207;-82
2023/09/15 04:17:06;;;;;;;9.15;4.03;;;26.30;89.80;;;;;;4955458;28;20230;-81
2023/09/15 04:19:37;;;;;;;5.72;3.53;;;26.20;89.60;;;;;;4952333;29;20634;-82
2023/09/15 04:22:08;;;;;;;10.23;4.22;;;26.10;89.50;;;;;;4967504;28;20187;-80
2023/09/15 04:24:39;;;;;;;6.20;3.75;;;26.00;90.00;;;;;;4962190;29;20203;-81
2023/09/15 04:27:09;;;;;;;6.40;3.72;;;25.90;89.60;;;;;;4955306;29;20206;-81
2023/09/15 04:29:53;;;;;;;6.80;3.65;;;25.90;90.10;;;;;;4949091;29;20224;-81
2023/09/15 04:32:26;;;;;;;8.05;3.67;;;25.90;89.90;;;;;;4935939;29;20200;-81
2023/09/15 04:34:58;;;;;;;5.40;3.95;;;26.00;88.50;;;;;;4936313;29;20229;-81
2023/09/15 04:37:29;;;;;;;8.02;3.72;;;26.00;87.30;;;;;;4935891;29;20208;-81
2023/09/15 04:40:01;;;;;;;5.03;3.70;;;26.00;87.00;;;;;;4939499;29;20211;-81
2023/09/15 04:42:31;;;;;;;6.00;3.67;;;26.00;85.70;;;;;;4955465;29;20208;-82
2023/09/15 04:45:02;;;;;;;6.40;4.03;;;25.90;85.50;;;;;;4957137;29;20211;-81
2023/09/15 04:47:37;;;;;;;6.45;3.80;;;25.90;84.90;;;;;;4942166;29;20656;-82
2023/09/15 04:50:09;;;;;;;5.72;3.58;;;25.90;83.50;;;;;;4942031;29;20729;-81
2023/09/15 04:52:40;;;;;;;6.28;3.85;;;25.90;84.30;;;;;;4957661;29;20688;-82
2023/09/15 04:55:11;;;;;;;6.32;3.50;;;26.00;83.60;;;;;;4958785;29;20204;-81
2023/09/15 04:57:42;;;;;;;4.75;3.75;;;26.00;83.50;;;;;;4954988;29;20541;-82
2023/09/15 05:00:21;;;;;;;7.65;4.10;;;26.00;85.10;;;;;;4957693;29;20208;-82
2023/09/15 05:02:56;;;;;;;6.22;3.65;;;26.10;84.70;;;;;;4955725;28;20250;-81
2023/09/15 05:05:26;;;;;;;5.35;3.65;;;26.20;86.10;;;;;;4949988;29;20220;-83
2023/09/15 05:07:57;;;;;;;6.75;3.65;;;26.00;86.80;;;;;;4935018;29;20219;-83
2023/09/15 05:10:28;;;;;;;5.05;3.58;;;26.10;86.70;;;;;;4940327;29;20889;-83
2023/09/15 05:13:00;;;;;;;7.55;3.72;;;26.10;87.00;;;;;;4955262;29;20562;-83
2023/09/15 05:15:32;;;;;;;6.43;3.75;;;26.10;87.10;;;;;;4955470;29;20564;-84
2023/09/15 05:18:04;;;;;;;5.55;3.67;;;26.00;86.80;;;;;;4954592;29;20211;-84
2023/09/15 05:20:38;;;;;;;4.85;3.42;;;26.00;86.80;;;;;;4948564;29;20201;-84
2023/09/15 05:23:09;;;;;;;6.35;3.33;;;25.90;83.80;;;;;;4951165;29;20554;-84
2023/09/15 05:25:39;;;;;;;5.22;3.53;;;25.90;81.90;;;;;;4957322;29;20203;-84
2023/09/15 05:28:09;;;;;;;4.80;3.40;;;25.90;81.90;;;;;;4954492;29;20189;-84
2023/09/15 05:30:40;;;;;;;6.13;3.22;;;26.00;81.90;;;;;;4935545;29;20216;-84
2023/09/15 05:33:12;;;;;;;9.07;3.58;;;26.20;81.20;;;;;;4936913;29;20197;-84
2023/09/15 05:35:43;;;;;;;5.07;3.45;;;26.20;80.70;;;;;;4952503;29;20234;-84
2023/09/15 05:38:14;;;;;;;7.47;3.22;;;26.30;80.40;;;;;;4954790;29;20261;-83
2023/09/15 05:40:45;;;;;;;6.30;3.70;;;26.30;80.10;;;;;;4956623;29;20593;-84
2023/09/15 05:43:17;;;;;;;6.10;3.10;;;26.40;80.30;;;;;;4955136;29;20196;-84
2023/09/15 05:45:48;;;;;;;6.85;3.15;;;26.40;81.10;;;;;;4958460;29;20192;-83
2023/09/15 05:48:23;;;;;;;7.90;3.28;;;26.40;81.20;;;;;;4959655;29;20281;-84
2023/09/15 05:50:54;;;;;;;6.95;3.10;;;26.50;80.70;;;;;;4952871;28;20235;-83
2023/09/15 05:53:25;;;;;;;4.70;3.50;;;26.50;80.40;;;;;;4938856;29;20565;-82
2023/09/15 05:55:56;;;;;;;5.13;3.30;;;26.70;80.50;;;;;;4937050;29;20192;-83
2023/09/15 05:58:26;;;;;;;6.72;3.28;;;26.80;79.50;;;;;;4949974;29;20192;-84
2023/09/15 06:00:57;;;;;;;7.07;3.72;;;26.90;78.00;;;;;;4937950;29;20692;-84
2023/09/15 06:03:30;;;;;;;9.40;3.63;;;27.00;77.90;;;;;;4936096;29;20221;-84
2023/09/15 06:06:00;;;;;;;7.10;3.25;;;27.10;77.40;;;;;;4954771;28;20202;-84
2023/09/15 06:08:31;;;;;;;10.40;3.80;;;27.00;77.00;;;;;;4952720;29;20201;-83
2023/09/15 06:11:08;;;;;;;4.47;3.40;;;27.00;78.00;;;;;;4950935;29;20232;-84
2023/09/15 06:13:39;;;;;;;5.65;3.40;;;26.90;78.20;;;;;;4941660;29;20543;-84
2023/09/15 06:16:10;;;;;;;8.68;4.05;;;26.90;78.30;;;;;;4952440;29;20199;-83
2023/09/15 06:18:44;;;;;;;6.63;3.47;;;26.90;78.40;;;;;;4954547;29;20287;-85
2023/09/15 06:21:20;;;;;;;6.63;3.60;;;26.90;77.80;;;;;;4959772;29;20254;-84
2023/09/15 06:23:50;;;;;;;7.15;3.88;;;27.10;76.90;;;;;;4951329;29;20197;-85
2023/09/15 06:26:21;;;;;;;8.70;3.58;;;27.10;76.10;;;;;;4943079;29;20197;-83
2023/09/15 06:28:52;;;;;;;7.38;3.60;;;27.30;75.00;;;;;;4950006;29;20204;-83
2023/09/15 06:31:23;;;;;;;8.50;3.88;;;27.50;73.90;;;;;;4955159;29;20667;-83
2023/09/15 06:33:56;;;;;;;5.40;3.50;;;27.70;73.00;;;;;;4954189;29;20229;-83
2023/09/15 06:36:27;;;;;;;6.40;3.67;;;27.80;72.90;;;;;;4953411;29;20204;-84
2023/09/15 06:38:58;;;;;;;7.00;3.80;;;28.00;71.80;;;;;;4952221;29;20207;-83
2023/09/15 06:41:29;;;;;;;7.40;3.83;;;27.90;72.10;;;;;;4953283;29;20188;-83
2023/09/15 06:44:00;;;;;;;6.05;4.13;;;28.00;71.90;;;;;;4953327;29;20200;-83
2023/09/15 06:46:30;;;;;;;7.43;3.65;;;27.90;71.90;;;;;;4945889;29;20196;-84
2023/09/15 06:49:04;;;;;;;5.85;3.80;;;27.60;72.30;;;;;;4935290;29;20205;-84
2023/09/15 06:51:34;;;;;;;4.35;3.80;;;27.70;73.30;;;;;;4934180;29;20232;-85
2023/09/15 06:54:05;;;;;;;6.60;3.72;;;27.60;74.50;;;;;;4934518;29;20687;-83
2023/09/15 06:56:36;;;;;;;6.78;4.20;;;27.30;75.60;;;;;;4952379;29;20208;-83
2023/09/15 06:59:07;;;;;;;6.45;4.10;;;27.20;76.60;;;;;;4952697;29;20199;-83
2023/09/15 07:01:37;;;;;;;10.55;4.50;;;26.70;78.20;;;;;;4952935;28;20207;-84
2023/09/15 07:04:12;;;;;;;6.90;4.07;;;26.50;80.10;;;;;;4955335;28;20536;-82
2023/09/15 07:06:43;;;;;;;6.45;4.07;;;26.20;81.60;;;;;;4954072;29;20694;-82
2023/09/15 07:09:14;;;;;;;5.78;3.80;;;25.90;83.30;;;;;;4953794;29;20191;-82
2023/09/15 07:11:44;;;;;;;7.40;4.10;;;25.60;84.30;;;;;;4961050;29;20216;-81
2023/09/15 07:14:15;;;;;;;7.65;4.07;;;25.40;85.20;;;;;;4958574;29;20206;-82
2023/09/15 07:16:46;;;;;;;7.70;4.70;;;25.10;87.10;;;;;;4959859;29;20200;-82
2023/09/15 07:19:19;;;;;;;8.63;4.68;;;24.80;88.40;;;;;;4953842;29;20885;-81
2023/09/15 07:21:49;;;;;;;6.07;4.53;;;24.70;90.00;;;;;;4953003;29;20580;-82
2023/09/15 07:24:20;;;;;;;8.88;4.90;;;24.50;90.70;;;;;;4935707;29;20206;-82
2023/09/15 07:26:51;;;;;;;6.78;4.70;;;24.20;91.90;;;;;;4934747;29;20208;-82
2023/09/15 07:29:22;;;;;;;7.97;4.78;;;24.00;93.10;;;;;;4934367;29;20664;-82
2023/09/15 07:31:53;;;;;;;9.50;4.80;;;23.80;94.20;;;;;;4934662;29;20224;-82
2023/09/15 07:34:26;;;;;;;10.00;4.22;;;23.60;95.90;;;;;;4934030;29;20238;-82
2023/09/15 07:36:57;;;;;;;6.85;4.80;;;23.40;97.30;;;;;;4935502;29;20209;-82
2023/09/15 07:39:29;;;;;;;10.15;4.60;;;23.20;98.60;;;;;;4947786;29;20207;-82
2023/09/15 07:42:07;;;;;;;8.50;5.05;;;23.10;99.90;;;;;;4951009;29;20208;-83
2023/09/15 07:44:38;;;;;;;8.13;4.78;;;22.90;99.90;;;;;;4941824;29;20239;-85
2023/09/15 07:47:14;;;;;;;13.00;4.50;;;22.80;99.90;;;;;;4953264;29;20226;-83
2023/09/15 07:49:49;;;;;;;6.82;4.57;;;22.70;99.90;;;;;;4938026;29;20294;-81
2023/09/15 07:52:22;;;;;;;12.63;5.03;;;22.60;99.90;;;;;;4940986;29;20215;-83
2023/09/15 07:54:55;;;;;;;9.50;4.40;;;22.60;99.90;;;;;;4950345;29;20263;-84
2023/09/15 07:57:26;;;;;;;11.07;5.07;;;22.50;99.90;;;;;;4951418;29;20671;-83
2023/09/15 07:59:58;;;;;;;8.55;5.25;;;22.50;99.90;;;;;;4933249;29;20205;-84
2023/09/15 08:02:32;;;;;;;8.43;5.05;;;22.40;99.90;;;;;;4934357;29;20287;-84
2023/09/15 08:05:04;;;;;;;8.48;4.50;;;22.30;99.90;;;;;;4933312;29;20252;-83
2023/09/15 08:07:35;;;;;;;11.65;5.10;;;22.30;99.90;;;;;;4946399;29;20686;-84
2023/09/15 08:10:07;;;;;;;9.65;4.93;;;22.10;99.90;;;;;;4950344;29;20232;-84
2023/09/15 08:12:38;;;;;;;11.23;4.78;;;22.10;99.90;;;;;;4934150;29;20208;-84
2023/09/15 08:15:10;;;;;;;9.85;5.95;;;22.10;99.90;;;;;;4937395;29;20205;-84
2023/09/15 08:17:41;;;;;;;10.68;6.40;;;22.00;99.90;;;;;;4937549;29;20610;-84
2023/09/15 08:20:14;;;;;;;8.60;4.68;;;22.00;99.90;;;;;;4949786;29;20235;-89
2023/09/15 08:22:45;;;;;;;7.75;4.07;;;22.00;99.90;;;;;;4957806;29;20215;-88
2023/09/15 08:25:16;;;;;;;8.43;4.20;;;21.90;99.90;;;;;;4957308;29;20219;-88
2023/09/15 08:27:48;;;;;;;7.40;3.80;;;21.90;99.90;;;;;;4950422;29;20208;-88
2023/09/15 08:30:22;;;;;;;6.38;3.90;;;21.90;99.90;;;;;;4938421;29;20230;-88
2023/09/15 08:32:53;;;;;;;9.10;4.20;;;21.90;99.90;;;;;;4958847;29;20216;-88
2023/09/15 08:35:26;;;;;;;12.07;3.60;;;21.90;99.90;;;;;;4958787;29;20758;-88
2023/09/15 08:37:57;;;;;;;7.78;3.78;;;21.80;99.90;;;;;;4957803;29;20196;-88
2023/09/15 08:40:31;;;;;;;7.55;3.38;;;21.80;99.90;;;;;;4958033;29;20206;-88
2023/09/15 08:43:02;;;;;;;7.85;3.10;;;21.70;99.90;;;;;;4959144;29;20203;-88
2023/09/15 08:45:35;;;;;;;9.20;3.50;;;21.60;99.90;;;;;;4971555;28;20204;-89
2023/09/15 08:48:08;;;;;;;10.25;3.90;;;21.70;99.90;;;;;;4957315;29;20203;-88
2023/09/15 08:50:42;;;;;;;7.22;3.50;;;21.60;99.90;;;;;;4954351;29;20278;-88
2023/09/15 08:53:14;;;;;;;9.57;3.67;;;21.60;99.90;;;;;;4953511;29;20211;-88
2023/09/15 08:55:45;;;;;;;11.05;4.32;;;21.50;99.90;;;;;;4956470;29;20208;-88
2023/09/15 08:58:17;;;;;;;9.25;4.00;;;21.40;99.90;;;;;;4956832;29;20208;-88
2023/09/15 09:00:48;;;;;;;9.43;3.50;;;21.30;99.90;;;;;;4955817;29;20231;-87
2023/09/15 09:03:23;;;;;;;8.73;3.80;;;21.30;99.90;;;;;;4938574;29;20720;-87
2023/09/15 09:05:58;;;;;;;5.93;3.53;;;21.30;99.90;;;;;;4964500;28;20199;-86
2023/09/15 09:08:30;;;;;;;10.68;3.63;;;21.30;99.90;;;;;;4954699;29;20203;-87
2023/09/15 09:11:03;;;;;;;9.13;3.83;;;21.20;99.90;;;;;;4952316;29;20216;-87
2023/09/15 09:13:34;;;;;;;9.23;3.88;;;21.20;99.90;;;;;;4955681;29;20208;-87
2023/09/15 09:16:07;;;;;;;6.70;3.70;;;21.30;99.90;;;;;;4955708;29;20204;-87
2023/09/15 09:18:39;;;;;;;11.90;4.30;;;21.30;99.90;;;;;;4955191;29;20220;-87
2023/09/15 09:21:12;;;;;;;8.68;3.70;;;21.20;99.90;;;;;;4955943;29;20282;-87
2023/09/15 09:23:45;;;;;;;12.23;4.50;;;21.20;99.90;;;;;;4955719;28;20196;-86
2023/09/15 09:26:16;;;;;;;9.13;4.03;;;21.30;99.90;;;;;;4944299;29;20240;-86
2023/09/15 09:28:47;;;;;;;8.48;3.63;;;21.30;99.90;;;;;;4937010;29;20224;-87
2023/09/15 09:31:18;;;;;;;9.65;4.10;;;21.40;99.90;;;;;;4938869;29;20315;-88
2023/09/15 09:33:50;;;;;;;10.68;4.53;;;21.40;99.90;;;;;;4949692;29;20203;-88
2023/09/15 09:36:23;;;;;;;8.43;4.57;;;21.30;99.90;;;;;;4947575;29;20200;-87
2023/09/15 09:38:55;;;;;;;10.95;4.60;;;21.30;99.90;;;;;;4949201;29;20260;-87
2023/09/15 09:41:28;;;;;;;6.95;4.40;;;21.20;99.90;;;;;;4936628;29;20216;-87
2023/09/15 09:44:04;;;;;;;8.57;4.93;;;21.30;99.90;;;;;;4919603;29;20208;-87
2023/09/15 09:46:36;;;;;;;8.52;4.93;;;21.30;99.90;;;;;;4946320;29;20200;-87
2023/09/15 09:49:07;;;;;;;8.30;4.35;;;21.30;99.90;;;;;;4962721;29;20208;-87
2023/09/15 09:51:40;;;;;;;9.27;4.75;;;21.30;99.90;;;;;;4970109;28;20262;-86
2023/09/15 09:54:11;;;;;;;8.80;4.85;;;21.30;99.90;;;;;;4954383;28;20204;-88
2023/09/15 09:56:49;;;;;;;9.23;4.93;;;21.40;99.90;;;;;;4954499;29;20192;-87
2023/09/15 09:59:21;;;;;;;9.80;5.63;;;21.40;99.90;;;;;;4955973;29;20208;-86
2023/09/15 10:01:52;;;;;;;9.38;4.93;;;21.40;99.90;;;;;;4953381;29;20203;-86
2023/09/15 10:04:23;;;;;;;10.80;5.18;;;21.40;99.90;;;;;;4955112;28;20215;-87
2023/09/15 10:06:56;;;;;;;11.02;4.50;;;21.30;99.90;;;;;;4954281;29;20204;-88
2023/09/15 10:09:29;;;;;;;6.93;4.43;;;21.20;99.90;;;;;;4953992;29;20204;-87
2023/09/15 10:12:02;;;;;;;6.18;4.30;;;21.20;99.90;;;;;;4938250;29;20224;-88
2023/09/15 10:14:33;;;;;;;7.93;4.63;;;21.20;99.90;;;;;;4943948;29;20678;-87
2023/09/15 10:17:05;;;;;;;8.25;4.63;;;21.20;99.90;;;;;;4954729;29;20211;-87
2023/09/15 10:19:36;;;;;;;8.88;4.32;;;21.30;99.90;;;;;;4954652;29;20200;-87
2023/09/15 10:22:09;;;;;;;8.85;4.68;;;21.30;99.90;;;;;;4938554;29;20200;-86
2023/09/15 10:24:44;;;;;;;9.88;4.57;;;21.30;99.90;;;;;;4935515;29;20208;-87
2023/09/15 10:27:17;;;;;;;8.23;4.70;;;21.30;99.90;;;;;;4948268;29;20210;-88
2023/09/15 10:29:49;;;;;;;6.40;4.65;;;21.30;99.90;;;;;;4954705;29;20203;-86
2023/09/15 10:32:22;;;;;;;5.50;4.00;;;21.30;99.90;;;;;;4953415;29;20725;-87
2023/09/15 10:34:56;;;;;;;7.93;4.20;;;21.30;99.90;;;;;;4953540;28;20232;-85
2023/09/15 10:37:28;;;;;;;6.72;4.35;;;21.30;99.90;;;;;;4943048;29;20573;-86
2023/09/15 10:40:02;;;;;;;6.82;4.47;;;21.30;99.90;;;;;;4954070;29;20196;-86
2023/09/15 10:42:36;;;;;;;10.18;4.78;;;21.30;99.90;;;;;;4939098;29;20612;-85
2023/09/15 10:45:16;;;;;;;9.15;4.28;;;21.30;99.90;;;;;;4950809;29;20207;-85
2023/09/15 10:47:57;;;;;;;7.18;4.25;;;21.20;99.90;;;;;;4935873;29;20204;-86
2023/09/15 10:50:39;;;;;;;5.47;4.10;;;21.20;99.90;;;;;;4936082;29;20210;-86
2023/09/15 10:53:14;;;;;;;7.05;4.35;;;21.20;99.90;;;;;;4938667;29;20189;-86
2023/09/15 10:55:44;;;;;;;7.18;4.30;;;21.10;99.90;;;;;;4969472;29;20226;-87
2023/09/15 10:58:18;;;;;;;6.95;4.10;;;21.10;99.90;;;;;;4965204;29;20573;-87
2023/09/15 11:00:51;;;;;;;7.95;4.22;;;21.10;99.90;;;;;;4947005;29;20272;-86
2023/09/15 11:03:25;;;;;;;7.38;4.20;;;21.10;99.90;;;;;;4936460;29;20221;-86
2023/09/15 11:05:58;;;;;;;6.72;4.68;;;21.10;99.90;;;;;;4938705;29;20184;-86
2023/09/15 11:08:32;;;;;;;6.95;4.25;;;21.00;99.90;;;;;;4936860;29;20690;-87
2023/09/15 11:11:04;;;;;;;4.97;3.92;;;21.00;99.90;;;;;;4954991;29;20196;-86
2023/09/15 11:13:35;;;;;;;7.10;4.07;;;21.00;99.90;;;;;;4954207;29;20310;-85
2023/09/15 11:16:06;;;;;;;6.47;3.85;;;21.00;99.90;;;;;;4952579;29;20564;-86
2023/09/15 11:18:38;;;;;;;7.38;4.32;;;21.00;99.90;;;;;;4951429;29;20223;-86
2023/09/15 11:21:12;;;;;;;7.50;4.03;;;20.90;99.90;;;;;;4955307;29;20188;-87
2023/09/15 11:23:47;;;;;;;7.88;4.10;;;20.90;99.90;;;;;;4956088;29;20185;-85
2023/09/15 11:26:18;;;;;;;6.82;4.07;;;20.90;99.90;;;;;;4955658;29;20192;-85
2023/09/15 11:28:48;;;;;;;4.63;4.00;;;20.90;99.90;;;;;;4955841;29;20184;-86
2023/09/15 11:31:20;;;;;;;6.90;4.40;;;20.90;99.90;;;;;;4951068;29;20600;-86
2023/09/15 11:33:52;;;;;;;5.95;3.72;;;20.90;99.90;;;;;;4935900;29;20200;-86
2023/09/15 11:36:24;;;;;;;8.82;4.00;;;20.80;99.90;;;;;;4935027;29;20201;-85
2023/09/15 11:38:58;;;;;;;7.72;4.20;;;20.80;99.90;;;;;;4938795;29;20188;-86
2023/09/15 11:41:36;;;;;;;7.28;4.43;;;20.80;99.90;;;;;;4953358;29;20564;-87
2023/09/15 11:44:08;;;;;;;5.85;3.85;;;20.80;99.90;;;;;;4951016;29;20196;-86
2023/09/15 11:46:41;;;;;;;8.73;4.18;;;20.80;99.90;;;;;;4945702;28;20207;-86
2023/09/15 11:49:12;;;;;;;6.00;4.40;;;20.80;99.90;;;;;;4957005;29;20208;-86
2023/09/15 11:51:43;;;;;;;11.40;5.00;;;20.80;99.90;;;;;;4945967;29;20592;-86
2023/09/15 11:54:16;;;;;;;7.22;4.53;;;20.70;99.90;;;;;;4948314;29;20207;-86
2023/09/15 11:56:49;;;;;;;8.68;5.82;;;20.70;99.90;;;;;;4957831;29;20211;-86
2023/09/15 11:59:20;;;;;;;7.60;4.88;;;20.70;99.90;;;;;;4957523;29;20195;-86
2023/09/15 12:01:54;;;;;;;12.23;5.40;;;20.70;99.90;;;;;;4975001;28;20212;-84
2023/09/15 12:04:26;;;;;;;11.48;5.30;;;20.70;99.90;;;;;;4963972;28;20247;-86
2023/09/15 12:06:58;;;;;;;6.53;4.70;;;20.60;99.90;;;;;;4956326;29;20274;-85
2023/09/15 12:09:31;;;;;;;7.75;4.65;;;20.60;99.90;;;;;;4943582;29;20211;-85
2023/09/15 12:12:04;;;;;;;6.30;4.55;;;20.60;99.90;;;;;;4956420;29;20224;-85
2023/09/15 12:14:35;;;;;;;8.10;4.32;;;20.50;99.90;;;;;;4948985;29;20188;-86
2023/09/15 12:17:08;;;;;;;6.78;4.40;;;20.50;99.90;;;;;;4949194;29;20204;-86
2023/09/15 12:19:39;;;;;;;8.05;4.05;;;20.50;99.90;;;;;;4948451;29;20303;-87
2023/09/15 12:22:08;;;;;;;5.28;4.13;;;20.40;99.90;;;;;;4947815;29;20193;-87
2023/09/15 12:24:42;;;;;;;7.03;4.10;;;20.40;99.90;;;;;;4941849;29;20201;-85
2023/09/15 12:27:14;;;;;;;5.57;4.10;;;20.30;99.90;;;;;;4955948;29;20589;-87
2023/09/15 12:29:45;;;;;;;8.73;4.63;;;20.30;99.90;;;;;;4951612;29;20279;-87
2023/09/15 12:32:16;;;;;;;6.85;4.22;;;20.30;99.90;;;;;;4960151;29;20232;-86
2023/09/15 12:34:47;;;;;;;4.97;4.03;;;20.30;99.90;;;;;;4944149;29;20264;-86
2023/09/15 12:37:18;;;;;;;6.63;4.38;;;20.30;99.90;;;;;;4945229;29;20196;-86
2023/09/15 12:39:51;;;;;;;5.20;4.20;;;20.30;99.90;;;;;;4955898;29;20203;-85
2023/09/15 12:42:22;;;;;;;6.45;4.45;;;20.20;99.90;;;;;;4956052;29;20209;-86
2023/09/15 12:44:52;;;;;;;5.65;4.15;;;20.20;99.90;;;;;;4941881;29;20211;-86
2023/09/15 12:47:23;;;;;;;5.40;4.45;;;20.10;99.90;;;;;;4959158;29;20283;-86
2023/09/15 12:49:54;;;;;;;5.28;4.00;;;20.10;99.90;;;;;;4960387;29;20227;-85
2023/09/15 12:52:25;;;;;;;6.75;4.60;;;20.10;99.90;;;;;;4959854;29;20224;-85
2023/09/15 12:54:57;;;;;;;6.07;4.15;;;20.00;99.90;;;;;;4959160;29;20246;-86
2023/09/15 12:57:28;;;;;;;7.25;4.80;;;20.00;99.90;;;;;;4975628;29;20203;-87
2023/09/15 13:00:00;;;;;;;6.90;4.60;;;20.00;99.90;;;;;;4977455;28;20218;-86
2023/09/15 13:02:31;;;;;;;5.75;4.78;;;20.00;99.90;;;;;;4979658;28;20212;-87
2023/09/15 13:05:01;;;;;;;9.70;4.15;;;20.00;99.90;;;;;;4971342;28;20219;-81
2023/09/15 13:07:32;;;;;;;8.43;4.45;;;19.90;99.90;;;;;;4961062;28;20228;-86
2023/09/15 13:10:07;;;;;;;5.90;4.43;;;19.90;99.90;;;;;;4960418;28;20199;-85